Hammondville, Alabama
Current Conditions -  °F | °C
As of 11:35 PM on Wednesday 26 Nov 2014 (Local Time) from K4A9 Reporting Station
Clear Clear  
Wind Chill: 37°   Ceiling: Unl
Heat Index: 43°   Visibility: 10mi
Dew Point: 28°   Wind: 9mph
Humidity: 57%   Direction: 260°W
Pressure: 30.1"   Gusts: 16mph
Location:  34.5704°N, 85.6428°W
Report Text: K4A9 270535Z AUTO 26008G14KT 10SM CLR 06/M02 A3010 RMK AO2
Loading
Personal Weather Stations






























Interactive Weather Map New forecast layout! Learn more

10-Day Weather Forecast

Advertisements
Track Severe Weather on mobile